sensor_id;sensor_type;location;lat;lon;timestamp;P1;P2;P0
47079;PMS5003;33067;49.296;14.470;2023-03-01T00:01:20;59;52;
47079;PMS5003;33067;49.296;14.470;2023-03-01T00:03:43;66;58;
47079;PMS5003;33067;49.296;14.470;2023-03-01T00:06:09;69;63;
47079;PMS5003;33067;49.296;14.470;2023-03-01T00:08:34;85;79;
47079;PMS5003;33067;49.296;14.470;2023-03-01T00:11:01;80;65;
47079;PMS5003;33067;49.296;14.470;2023-03-01T00:13:25;63;56;
47079;PMS5003;33067;49.296;14.470;2023-03-01T00:15:50;53;49;
47079;PMS5003;33067;49.296;14.470;2023-03-01T00:18:16;67;61;
47079;PMS5003;33067;49.296;14.470;2023-03-01T00:20:42;83;75;
47079;PMS5003;33067;49.296;14.470;2023-03-01T00:23:07;79;71;
47079;PMS5003;33067;49.296;14.470;2023-03-01T00:25:33;93;75;
47079;PMS5003;33067;49.296;14.470;2023-03-01T00:27:58;91;80;
47079;PMS5003;33067;49.296;14.470;2023-03-01T00:30:23;73;66;
47079;PMS5003;33067;49.296;14.470;2023-03-01T00:32:49;81;67;
47079;PMS5003;33067;49.296;14.470;2023-03-01T00:35:14;76;67;
47079;PMS5003;33067;49.296;14.470;2023-03-01T00:37:39;81;72;
47079;PMS5003;33067;49.296;14.470;2023-03-01T00:40:05;111;94;
47079;PMS5003;33067;49.296;14.470;2023-03-01T00:42:30;93;80;
47079;PMS5003;33067;49.296;14.470;2023-03-01T00:44:55;83;73;
47079;PMS5003;33067;49.296;14.470;2023-03-01T00:47:20;79;69;
47079;PMS5003;33067;49.296;14.470;2023-03-01T00:49:46;72;57;
47079;PMS5003;33067;49.296;14.470;2023-03-01T00:52:11;72;61;
47079;PMS5003;33067;49.296;14.470;2023-03-01T00:54:36;63;56;
47079;PMS5003;33067;49.296;14.470;2023-03-01T00:57:01;60;56;
47079;PMS5003;33067;49.296;14.470;2023-03-01T00:59:27;65;57;
47079;PMS5003;33067;49.296;14.470;2023-03-01T01:01:52;59;54;
47079;PMS5003;33067;49.296;14.470;2023-03-01T01:04:17;63;56;
47079;PMS5003;33067;49.296;14.470;2023-03-01T01:06:43;62;55;
47079;PMS5003;33067;49.296;14.470;2023-03-01T01:09:09;64;59;
47079;PMS5003;33067;49.296;14.470;2023-03-01T01:11:34;60;51;
47079;PMS5003;33067;49.296;14.470;2023-03-01T01:13:59;64;55;
47079;PMS5003;33067;49.296;14.470;2023-03-01T01:16:26;59;54;
47079;PMS5003;33067;49.296;14.470;2023-03-01T01:18:51;53;49;
47079;PMS5003;33067;49.296;14.470;2023-03-01T01:21:18;58;51;
47079;PMS5003;33067;49.296;14.470;2023-03-01T01:23:42;59;52;
47079;PMS5003;33067;49.296;14.470;2023-03-01T01:26:08;69;61;
47079;PMS5003;33067;49.296;14.470;2023-03-01T01:28:32;54;46;
47079;PMS5003;33067;49.296;14.470;2023-03-01T01:30:57;56;50;
47079;PMS5003;33067;49.296;14.470;2023-03-01T01:33:23;60;55;
47079;PMS5003;33067;49.296;14.470;2023-03-01T01:35:49;56;51;
47079;PMS5003;33067;49.296;14.470;2023-03-01T01:38:14;64;59;
47079;PMS5003;33067;49.296;14.470;2023-03-01T01:40:43;70;58;
47079;PMS5003;33067;49.296;14.470;2023-03-01T01:43:07;71;61;
47079;PMS5003;33067;49.296;14.470;2023-03-01T01:45:32;72;64;
47079;PMS5003;33067;49.296;14.470;2023-03-01T01:47:57;70;60;
47079;PMS5003;33067;49.296;14.470;2023-03-01T01:50:21;58;58;
47079;PMS5003;33067;49.296;14.470;2023-03-01T01:52:46;57;51;
47079;PMS5003;33067;49.296;14.470;2023-03-01T01:55:13;57;51;
47079;PMS5003;33067;49.296;14.470;2023-03-01T01:57:38;74;63;
47079;PMS5003;33067;49.296;14.470;2023-03-01T02:00:05;64;63;
47079;PMS5003;33067;49.296;14.470;2023-03-01T02:02:28;90;75;
47079;PMS5003;33067;49.296;14.470;2023-03-01T02:04:55;86;75;
47079;PMS5003;33067;49.296;14.470;2023-03-01T02:07:20;99;82;
47079;PMS5003;33067;49.296;14.470;2023-03-01T02:09:46;86;81;
47079;PMS5003;33067;49.296;14.470;2023-03-01T02:12:11;88;76;
47079;PMS5003;33067;49.296;14.470;2023-03-01T02:14:36;84;76;
47079;PMS5003;33067;49.296;14.470;2023-03-01T02:17:01;75;64;
47079;PMS5003;33067;49.296;14.470;2023-03-01T02:19:30;77;67;
47079;PMS5003;33067;49.296;14.470;2023-03-01T02:21:54;66;61;
47079;PMS5003;33067;49.296;14.470;2023-03-01T02:24:20;58;50;
47079;PMS5003;33067;49.296;14.470;2023-03-01T02:26:45;77;64;
47079;PMS5003;33067;49.296;14.470;2023-03-01T02:29:08;64;59;
47079;PMS5003;33067;49.296;14.470;2023-03-01T02:31:34;56;51;
47079;PMS5003;33067;49.296;14.470;2023-03-01T02:33:59;58;55;
47079;PMS5003;33067;49.296;14.470;2023-03-01T02:36:25;54;47;
47079;PMS5003;33067;49.296;14.470;2023-03-01T02:38:51;76;68;
47079;PMS5003;33067;49.296;14.470;2023-03-01T02:41:16;67;60;
47079;PMS5003;33067;49.296;14.470;2023-03-01T02:43:41;61;55;
47079;PMS5003;33067;49.296;14.470;2023-03-01T02:46:08;60;51;
47079;PMS5003;33067;49.296;14.470;2023-03-01T02:48:39;55;50;
47079;PMS5003;33067;49.296;14.470;2023-03-01T02:51:02;71;56;
47079;PMS5003;33067;49.296;14.470;2023-03-01T02:53:25;53;50;
47079;PMS5003;33067;49.296;14.470;2023-03-01T02:55:49;65;50;
47079;PMS5003;33067;49.296;14.470;2023-03-01T02:58:14;56;49;
47079;PMS5003;33067;49.296;14.470;2023-03-01T03:00:40;58;53;
47079;PMS5003;33067;49.296;14.470;2023-03-01T03:03:06;63;58;
47079;PMS5003;33067;49.296;14.470;2023-03-01T03:05:31;66;53;
47079;PMS5003;33067;49.296;14.470;2023-03-01T03:07:58;63;49;
47079;PMS5003;33067;49.296;14.470;2023-03-01T03:13:01;58;54;
47079;PMS5003;33067;49.296;14.470;2023-03-01T03:15:25;54;49;
47079;PMS5003;33067;49.296;14.470;2023-03-01T03:17:51;62;54;
47079;PMS5003;33067;49.296;14.470;2023-03-01T03:20:17;69;61;
47079;PMS5003;33067;49.296;14.470;2023-03-01T03:22:42;55;54;
47079;PMS5003;33067;49.296;14.470;2023-03-01T03:25:08;57;47;
47079;PMS5003;33067;49.296;14.470;2023-03-01T03:27:33;63;57;
47079;PMS5003;33067;49.296;14.470;2023-03-01T03:29:59;59;54;
47079;PMS5003;33067;49.296;14.470;2023-03-01T03:32:24;48;47;
47079;PMS5003;33067;49.296;14.470;2023-03-01T03:34:50;61;59;
47079;PMS5003;33067;49.296;14.470;2023-03-01T03:37:15;67;60;
47079;PMS5003;33067;49.296;14.470;2023-03-01T03:39:41;73;58;
47079;PMS5003;33067;49.296;14.470;2023-03-01T03:42:07;72;60;
47079;PMS5003;33067;49.296;14.470;2023-03-01T03:44:32;77;59;
47079;PMS5003;33067;49.296;14.470;2023-03-01T03:46:58;79;70;
47079;PMS5003;33067;49.296;14.470;2023-03-01T03:49:23;77;71;
47079;PMS5003;33067;49.296;14.470;2023-03-01T03:51:49;74;66;
47079;PMS5003;33067;49.296;14.470;2023-03-01T03:54:14;70;58;
47079;PMS5003;33067;49.296;14.470;2023-03-01T03:56:39;76;68;
47079;PMS5003;33067;49.296;14.470;2023-03-01T03:59:05;69;61;
47079;PMS5003;33067;49.296;14.470;2023-03-01T04:01:30;72;55;
47079;PMS5003;33067;49.296;14.470;2023-03-01T04:03:55;74;65;
47079;PMS5003;33067;49.296;14.470;2023-03-01T04:06:20;65;55;
47079;PMS5003;33067;49.296;14.470;2023-03-01T04:08:45;62;57;
47079;PMS5003;33067;49.296;14.470;2023-03-01T04:11:11;56;48;
47079;PMS5003;33067;49.296;14.470;2023-03-01T04:13:37;62;52;
47079;PMS5003;33067;49.296;14.470;2023-03-01T04:16:02;70;62;
47079;PMS5003;33067;49.296;14.470;2023-03-01T04:18:27;83;62;
47079;PMS5003;33067;49.296;14.470;2023-03-01T04:20:53;57;56;
47079;PMS5003;33067;49.296;14.470;2023-03-01T04:23:19;71;63;
47079;PMS5003;33067;49.296;14.470;2023-03-01T04:25:45;58;54;
47079;PMS5003;33067;49.296;14.470;2023-03-01T04:28:10;65;59;
47079;PMS5003;33067;49.296;14.470;2023-03-01T04:30:35;61;55;
47079;PMS5003;33067;49.296;14.470;2023-03-01T04:33:01;65;52;
47079;PMS5003;33067;49.296;14.470;2023-03-01T04:35:26;64;54;
47079;PMS5003;33067;49.296;14.470;2023-03-01T04:37:51;66;58;
47079;PMS5003;33067;49.296;14.470;2023-03-01T04:40:17;83;75;
47079;PMS5003;33067;49.296;14.470;2023-03-01T04:42:42;71;63;
47079;PMS5003;33067;49.296;14.470;2023-03-01T04:45:09;57;55;
47079;PMS5003;33067;49.296;14.470;2023-03-01T04:47:34;77;66;
47079;PMS5003;33067;49.296;14.470;2023-03-01T04:49:59;83;75;
47079;PMS5003;33067;49.296;14.470;2023-03-01T04:52:25;88;81;
47079;PMS5003;33067;49.296;14.470;2023-03-01T04:54:50;75;67;
47079;PMS5003;33067;49.296;14.470;2023-03-01T04:57:16;81;70;
47079;PMS5003;33067;49.296;14.470;2023-03-01T04:59:41;72;62;
47079;PMS5003;33067;49.296;14.470;2023-03-01T05:02:07;77;65;
47079;PMS5003;33067;49.296;14.470;2023-03-01T05:04:32;66;65;
47079;PMS5003;33067;49.296;14.470;2023-03-01T05:06:57;76;65;
47079;PMS5003;33067;49.296;14.470;2023-03-01T05:09:23;83;73;
47079;PMS5003;33067;49.296;14.470;2023-03-01T05:11:48;119;115;
47079;PMS5003;33067;49.296;14.470;2023-03-01T05:14:14;71;64;
47079;PMS5003;33067;49.296;14.470;2023-03-01T05:16:39;76;60;
47079;PMS5003;33067;49.296;14.470;2023-03-01T05:19:05;76;66;
47079;PMS5003;33067;49.296;14.470;2023-03-01T05:21:30;69;63;
47079;PMS5003;33067;49.296;14.470;2023-03-01T05:23:55;76;68;
47079;PMS5003;33067;49.296;14.470;2023-03-01T05:26:21;81;77;
47079;PMS5003;33067;49.296;14.470;2023-03-01T05:28:47;75;67;
47079;PMS5003;33067;49.296;14.470;2023-03-01T05:31:12;93;73;
47079;PMS5003;33067;49.296;14.470;2023-03-01T05:33:38;80;74;
47079;PMS5003;33067;49.296;14.470;2023-03-01T05:36:04;66;58;
47079;PMS5003;33067;49.296;14.470;2023-03-01T05:38:29;77;73;
47079;PMS5003;33067;49.296;14.470;2023-03-01T05:40:54;76;70;
47079;PMS5003;33067;49.296;14.470;2023-03-01T05:43:20;72;67;
47079;PMS5003;33067;49.296;14.470;2023-03-01T05:45:45;85;72;
47079;PMS5003;33067;49.296;14.470;2023-03-01T05:48:10;69;62;
47079;PMS5003;33067;49.296;14.470;2023-03-01T05:50:37;87;73;
47079;PMS5003;33067;49.296;14.470;2023-03-01T05:53:02;83;76;
47079;PMS5003;33067;49.296;14.470;2023-03-01T05:55:27;77;73;
47079;PMS5003;33067;49.296;14.470;2023-03-01T05:57:52;84;72;
47079;PMS5003;33067;49.296;14.470;2023-03-01T06:00:19;74;70;
47079;PMS5003;33067;49.296;14.470;2023-03-01T06:02:44;84;72;
47079;PMS5003;33067;49.296;14.470;2023-03-01T06:05:10;78;63;
47079;PMS5003;33067;49.296;14.470;2023-03-01T06:07:34;73;70;
47079;PMS5003;33067;49.296;14.470;2023-03-01T06:10:00;77;69;
47079;PMS5003;33067;49.296;14.470;2023-03-01T06:12:25;80;63;
47079;PMS5003;33067;49.296;14.470;2023-03-01T06:14:51;86;79;
47079;PMS5003;33067;49.296;14.470;2023-03-01T06:17:16;92;83;
47079;PMS5003;33067;49.296;14.470;2023-03-01T06:19:42;111;97;
47079;PMS5003;33067;49.296;14.470;2023-03-01T06:22:07;99;91;
47079;PMS5003;33067;49.296;14.470;2023-03-01T06:24:33;121;100;
47079;PMS5003;33067;49.296;14.470;2023-03-01T06:26:58;116;104;
47079;PMS5003;33067;49.296;14.470;2023-03-01T06:29:23;116;98;
47079;PMS5003;33067;49.296;14.470;2023-03-01T06:31:49;83;76;
47079;PMS5003;33067;49.296;14.470;2023-03-01T06:34:14;83;78;
47079;PMS5003;33067;49.296;14.470;2023-03-01T06:36:39;96;90;
47079;PMS5003;33067;49.296;14.470;2023-03-01T06:39:05;87;76;
47079;PMS5003;33067;49.296;14.470;2023-03-01T06:41:31;95;81;
47079;PMS5003;33067;49.296;14.470;2023-03-01T06:43:56;94;83;
47079;PMS5003;33067;49.296;14.470;2023-03-01T06:46:22;76;65;
47079;PMS5003;33067;49.296;14.470;2023-03-01T06:48:47;81;73;
47079;PMS5003;33067;49.296;14.470;2023-03-01T06:51:13;66;55;
47079;PMS5003;33067;49.296;14.470;2023-03-01T06:53:38;78;72;
47079;PMS5003;33067;49.296;14.470;2023-03-01T06:56:04;92;78;
47079;PMS5003;33067;49.296;14.470;2023-03-01T06:58:29;101;88;
47079;PMS5003;33067;49.296;14.470;2023-03-01T07:00:54;98;93;
47079;PMS5003;33067;49.296;14.470;2023-03-01T07:03:20;91;83;
47079;PMS5003;33067;49.296;14.470;2023-03-01T07:05:48;88;78;
47079;PMS5003;33067;49.296;14.470;2023-03-01T07:08:11;86;81;
47079;PMS5003;33067;49.296;14.470;2023-03-01T07:10:36;90;80;
47079;PMS5003;33067;49.296;14.470;2023-03-01T07:13:02;86;77;
47079;PMS5003;33067;49.296;14.470;2023-03-01T07:15:27;81;78;
47079;PMS5003;33067;49.296;14.470;2023-03-01T07:17:53;80;75;
47079;PMS5003;33067;49.296;14.470;2023-03-01T07:20:19;90;82;
47079;PMS5003;33067;49.296;14.470;2023-03-01T07:22:44;95;84;
47079;PMS5003;33067;49.296;14.470;2023-03-01T07:25:10;87;84;
47079;PMS5003;33067;49.296;14.470;2023-03-01T07:27:35;88;76;
47079;PMS5003;33067;49.296;14.470;2023-03-01T07:30:00;101;86;
47079;PMS5003;33067;49.296;14.470;2023-03-01T07:32:26;92;83;
47079;PMS5003;33067;49.296;14.470;2023-03-01T07:34:51;89;82;
47079;PMS5003;33067;49.296;14.470;2023-03-01T07:37:17;96;80;
47079;PMS5003;33067;49.296;14.470;2023-03-01T07:39:43;88;76;
47079;PMS5003;33067;49.296;14.470;2023-03-01T07:42:08;83;70;
47079;PMS5003;33067;49.296;14.470;2023-03-01T07:44:34;76;69;
47079;PMS5003;33067;49.296;14.470;2023-03-01T07:46:59;83;72;
47079;PMS5003;33067;49.296;14.470;2023-03-01T07:49:25;80;70;
47079;PMS5003;33067;49.296;14.470;2023-03-01T07:51:50;82;68;
47079;PMS5003;33067;49.296;14.470;2023-03-01T07:54:15;83;78;
47079;PMS5003;33067;49.296;14.470;2023-03-01T07:56:41;88;69;
47079;PMS5003;33067;49.296;14.470;2023-03-01T07:59:06;83;73;
47079;PMS5003;33067;49.296;14.470;2023-03-01T08:01:32;79;68;
47079;PMS5003;33067;49.296;14.470;2023-03-01T08:03:58;83;70;
47079;PMS5003;33067;49.296;14.470;2023-03-01T08:06:24;77;73;
47079;PMS5003;33067;49.296;14.470;2023-03-01T08:08:49;84;73;
47079;PMS5003;33067;49.296;14.470;2023-03-01T08:11:15;73;68;
47079;PMS5003;33067;49.296;14.470;2023-03-01T08:13:41;74;68;
47079;PMS5003;33067;49.296;14.470;2023-03-01T08:16:07;89;76;
47079;PMS5003;33067;49.296;14.470;2023-03-01T08:18:32;117;108;
47079;PMS5003;33067;49.296;14.470;2023-03-01T08:21:01;70;64;
47079;PMS5003;33067;49.296;14.470;2023-03-01T08:23:23;110;100;
47079;PMS5003;33067;49.296;14.470;2023-03-01T08:25:49;84;80;
47079;PMS5003;33067;49.296;14.470;2023-03-01T08:28:14;83;68;
47079;PMS5003;33067;49.296;14.470;2023-03-01T08:30:39;65;65;
47079;PMS5003;33067;49.296;14.470;2023-03-01T08:33:05;61;51;
47079;PMS5003;33067;49.296;14.470;2023-03-01T08:35:30;75;70;
47079;PMS5003;33067;49.296;14.470;2023-03-01T08:37:56;71;64;
47079;PMS5003;33067;49.296;14.470;2023-03-01T08:40:22;74;66;
47079;PMS5003;33067;49.296;14.470;2023-03-01T08:42:47;64;57;
47079;PMS5003;33067;49.296;14.470;2023-03-01T08:45:12;64;61;
47079;PMS5003;33067;49.296;14.470;2023-03-01T08:47:37;70;58;
47079;PMS5003;33067;49.296;14.470;2023-03-01T08:50:03;64;55;
47079;PMS5003;33067;49.296;14.470;2023-03-01T08:52:28;57;50;
47079;PMS5003;33067;49.296;14.470;2023-03-01T08:54:54;63;54;
47079;PMS5003;33067;49.296;14.470;2023-03-01T08:57:20;57;53;
47079;PMS5003;33067;49.296;14.470;2023-03-01T08:59:45;75;63;
47079;PMS5003;33067;49.296;14.470;2023-03-01T09:02:12;60;55;
47079;PMS5003;33067;49.296;14.470;2023-03-01T09:04:37;68;56;
47079;PMS5003;33067;49.296;14.470;2023-03-01T09:07:02;64;55;
47079;PMS5003;33067;49.296;14.470;2023-03-01T09:09:28;63;57;
47079;PMS5003;33067;49.296;14.470;2023-03-01T09:11:53;58;52;
47079;PMS5003;33067;49.296;14.470;2023-03-01T09:14:18;61;55;
47079;PMS5003;33067;49.296;14.470;2023-03-01T09:16:44;54;49;
47079;PMS5003;33067;49.296;14.470;2023-03-01T09:19:09;63;59;
47079;PMS5003;33067;49.296;14.470;2023-03-01T09:21:35;57;54;
47079;PMS5003;33067;49.296;14.470;2023-03-01T09:24:00;67;59;
47079;PMS5003;33067;49.296;14.470;2023-03-01T09:26:26;59;55;
47079;PMS5003;33067;49.296;14.470;2023-03-01T09:28:52;52;48;
47079;PMS5003;33067;49.296;14.470;2023-03-01T09:31:17;58;51;
47079;PMS5003;33067;49.296;14.470;2023-03-01T09:33:42;51;48;
47079;PMS5003;33067;49.296;14.470;2023-03-01T09:36:08;52;46;
47079;PMS5003;33067;49.296;14.470;2023-03-01T09:38:33;57;53;
47079;PMS5003;33067;49.296;14.470;2023-03-01T09:40:58;55;51;
47079;PMS5003;33067;49.296;14.470;2023-03-01T09:43:25;205;195;
47079;PMS5003;33067;49.296;14.470;2023-03-01T09:45:49;50;47;
47079;PMS5003;33067;49.296;14.470;2023-03-01T09:48:16;49;49;
47079;PMS5003;33067;49.296;14.470;2023-03-01T09:50:40;58;50;
47079;PMS5003;33067;49.296;14.470;2023-03-01T09:53:05;52;44;
47079;PMS5003;33067;49.296;14.470;2023-03-01T09:55:31;46;45;
47079;PMS5003;33067;49.296;14.470;2023-03-01T09:57:57;55;50;
47079;PMS5003;33067;49.296;14.470;2023-03-01T10:00:25;58;52;
47079;PMS5003;33067;49.296;14.470;2023-03-01T10:02:48;59;51;
47079;PMS5003;33067;49.296;14.470;2023-03-01T10:05:14;55;49;
47079;PMS5003;33067;49.296;14.470;2023-03-01T10:07:40;55;51;
47079;PMS5003;33067;49.296;14.470;2023-03-01T10:10:04;49;48;
47079;PMS5003;33067;49.296;14.470;2023-03-01T10:12:31;49;45;
47079;PMS5003;33067;49.296;14.470;2023-03-01T10:14:55;61;56;
47079;PMS5003;33067;49.296;14.470;2023-03-01T10:17:23;55;47;
47079;PMS5003;33067;49.296;14.470;2023-03-01T10:19:46;44;42;
47079;PMS5003;33067;49.296;14.470;2023-03-01T10:22:13;46;45;
47079;PMS5003;33067;49.296;14.470;2023-03-01T10:24:37;55;48;
47079;PMS5003;33067;49.296;14.470;2023-03-01T10:27:04;49;44;
47079;PMS5003;33067;49.296;14.470;2023-03-01T10:29:29;61;55;
47079;PMS5003;33067;49.296;14.470;2023-03-01T10:31:54;55;51;
47079;PMS5003;33067;49.296;14.470;2023-03-01T10:34:20;59;53;
47079;PMS5003;33067;49.296;14.470;2023-03-01T10:36:46;57;49;
47079;PMS5003;33067;49.296;14.470;2023-03-01T10:39:12;50;45;
47079;PMS5003;33067;49.296;14.470;2023-03-01T10:41:34;55;48;
47079;PMS5003;33067;49.296;14.470;2023-03-01T10:44:01;55;50;
47079;PMS5003;33067;49.296;14.470;2023-03-01T10:46:26;41;37;
47079;PMS5003;33067;49.296;14.470;2023-03-01T10:51:17;44;39;
47079;PMS5003;33067;49.296;14.470;2023-03-01T10:53:42;47;42;
47079;PMS5003;33067;49.296;14.470;2023-03-01T10:56:08;41;38;
47079;PMS5003;33067;49.296;14.470;2023-03-01T10:58:33;43;40;
47079;PMS5003;33067;49.296;14.470;2023-03-01T11:00:58;37;37;
47079;PMS5003;33067;49.296;14.470;2023-03-01T11:03:24;47;37;
47079;PMS5003;33067;49.296;14.470;2023-03-01T11:05:52;47;37;
47079;PMS5003;33067;49.296;14.470;2023-03-01T11:08:15;43;37;
47079;PMS5003;33067;49.296;14.470;2023-03-01T11:10:40;37;32;
47079;PMS5003;33067;49.296;14.470;2023-03-01T11:13:07;47;42;
47079;PMS5003;33067;49.296;14.470;2023-03-01T11:15:32;42;35;
47079;PMS5003;33067;49.296;14.470;2023-03-01T11:17:57;41;33;
47079;PMS5003;33067;49.296;14.470;2023-03-01T11:20:25;44;36;
47079;PMS5003;33067;49.296;14.470;2023-03-01T11:22:50;44;40;
47079;PMS5003;33067;49.296;14.470;2023-03-01T11:25:13;38;36;
47079;PMS5003;33067;49.296;14.470;2023-03-01T11:27:40;38;34;
47079;PMS5003;33067;49.296;14.470;2023-03-01T11:30:05;34;32;
47079;PMS5003;33067;49.296;14.470;2023-03-01T11:32:32;42;36;
47079;PMS5003;33067;49.296;14.470;2023-03-01T11:34:56;32;31;
47079;PMS5003;33067;49.296;14.470;2023-03-01T11:37:22;30;28;
47079;PMS5003;33067;49.296;14.470;2023-03-01T11:39:47;31;29;
47079;PMS5003;33067;49.296;14.470;2023-03-01T11:42:12;34;33;
47079;PMS5003;33067;49.296;14.470;2023-03-01T11:44:36;32;32;
47079;PMS5003;33067;49.296;14.470;2023-03-01T11:47:06;32;26;
47079;PMS5003;33067;49.296;14.470;2023-03-01T11:49:38;32;30;
47079;PMS5003;33067;49.296;14.470;2023-03-01T11:51:54;28;25;
47079;PMS5003;33067;49.296;14.470;2023-03-01T11:54:22;31;26;
47079;PMS5003;33067;49.296;14.470;2023-03-01T11:56:45;27;24;
47079;PMS5003;33067;49.296;14.470;2023-03-01T11:59:16;33;30;
47079;PMS5003;33067;49.296;14.470;2023-03-01T12:01:38;26;24;
47079;PMS5003;33067;49.296;14.470;2023-03-01T12:04:13;26;24;
47079;PMS5003;33067;49.296;14.470;2023-03-01T12:06:29;32;29;
47079;PMS5003;33067;49.296;14.470;2023-03-01T12:08:55;31;28;
47079;PMS5003;33067;49.296;14.470;2023-03-01T12:11:21;25;25;
47079;PMS5003;33067;49.296;14.470;2023-03-01T12:13:48;26;24;
47079;PMS5003;33067;49.296;14.470;2023-03-01T12:16:13;33;28;
47079;PMS5003;33067;49.296;14.470;2023-03-01T12:18:42;27;23;
47079;PMS5003;33067;49.296;14.470;2023-03-01T12:21:02;32;32;
47079;PMS5003;33067;49.296;14.470;2023-03-01T12:23:30;31;26;
47079;PMS5003;33067;49.296;14.470;2023-03-01T12:25:52;26;22;
47079;PMS5003;33067;49.296;14.470;2023-03-01T12:28:21;31;26;
47079;PMS5003;33067;49.296;14.470;2023-03-01T12:30:45;32;26;
47079;PMS5003;33067;49.296;14.470;2023-03-01T12:33:10;25;25;
47079;PMS5003;33067;49.296;14.470;2023-03-01T12:35:38;26;22;
47079;PMS5003;33067;49.296;14.470;2023-03-01T12:37:59;24;22;
47079;PMS5003;33067;49.296;14.470;2023-03-01T12:40:27;27;26;
47079;PMS5003;33067;49.296;14.470;2023-03-01T12:42:49;26;24;
47079;PMS5003;33067;49.296;14.470;2023-03-01T12:45:21;21;21;
47079;PMS5003;33067;49.296;14.470;2023-03-01T12:47:46;21;21;
47079;PMS5003;33067;49.296;14.470;2023-03-01T12:50:04;28;28;
47079;PMS5003;33067;49.296;14.470;2023-03-01T12:52:33;27;26;
47079;PMS5003;33067;49.296;14.470;2023-03-01T12:54:54;36;28;
47079;PMS5003;33067;49.296;14.470;2023-03-01T12:57:21;30;26;
47079;PMS5003;33067;49.296;14.470;2023-03-01T12:59:48;28;22;
47079;PMS5003;33067;49.296;14.470;2023-03-01T13:02:13;33;27;
47079;PMS5003;33067;49.296;14.470;2023-03-01T13:04:40;21;19;
47079;PMS5003;33067;49.296;14.470;2023-03-01T13:07:09;28;23;
47079;PMS5003;33067;49.296;14.470;2023-03-01T13:09:30;24;21;
47079;PMS5003;33067;49.296;14.470;2023-03-01T13:11:54;26;21;
47079;PMS5003;33067;49.296;14.470;2023-03-01T13:16:44;22;21;
47079;PMS5003;33067;49.296;14.470;2023-03-01T13:19:12;21;19;
47079;PMS5003;33067;49.296;14.470;2023-03-01T13:21:35;25;23;
47079;PMS5003;33067;49.296;14.470;2023-03-01T13:24:01;22;20;
47079;PMS5003;33067;49.296;14.470;2023-03-01T13:26:27;26;22;
47079;PMS5003;33067;49.296;14.470;2023-03-01T13:28:54;28;25;
47079;PMS5003;33067;49.296;14.470;2023-03-01T13:33:44;29;27;
47079;PMS5003;33067;49.296;14.470;2023-03-01T13:36:08;26;25;
47079;PMS5003;33067;49.296;14.470;2023-03-01T13:38:37;21;21;
47079;PMS5003;33067;49.296;14.470;2023-03-01T13:40:59;22;19;
47079;PMS5003;33067;49.296;14.470;2023-03-01T13:43:29;30;22;
47079;PMS5003;33067;49.296;14.470;2023-03-01T13:45:50;29;27;
47079;PMS5003;33067;49.296;14.470;2023-03-01T13:48:15;20;19;
47079;PMS5003;33067;49.296;14.470;2023-03-01T13:50:45;21;20;
47079;PMS5003;33067;49.296;14.470;2023-03-01T13:53:06;26;21;
47079;PMS5003;33067;49.296;14.470;2023-03-01T13:55:34;30;26;
47079;PMS5003;33067;49.296;14.470;2023-03-01T13:57:57;26;21;
47079;PMS5003;33067;49.296;14.470;2023-03-01T14:00:26;24;21;
47079;PMS5003;33067;49.296;14.470;2023-03-01T14:02:49;32;30;
47079;PMS5003;33067;49.296;14.470;2023-03-01T14:05:12;32;27;
47079;PMS5003;33067;49.296;14.470;2023-03-01T14:07:37;31;28;
47079;PMS5003;33067;49.296;14.470;2023-03-01T14:10:03;32;29;
47079;PMS5003;33067;49.296;14.470;2023-03-01T14:12:33;27;23;
47079;PMS5003;33067;49.296;14.470;2023-03-01T14:14:55;21;19;
47079;PMS5003;33067;49.296;14.470;2023-03-01T14:17:23;29;28;
47079;PMS5003;33067;49.296;14.470;2023-03-01T14:19:45;27;23;
47079;PMS5003;33067;49.296;14.470;2023-03-01T14:22:21;33;31;
47079;PMS5003;33067;49.296;14.470;2023-03-01T14:24:36;27;23;
47079;PMS5003;33067;49.296;14.470;2023-03-01T14:27:01;33;30;
47079;PMS5003;33067;49.296;14.470;2023-03-01T14:29:27;23;23;
47079;PMS5003;33067;49.296;14.470;2023-03-01T14:31:52;34;27;
47079;PMS5003;33067;49.296;14.470;2023-03-01T14:34:19;27;23;
47079;PMS5003;33067;49.296;14.470;2023-03-01T14:36:43;29;26;
47079;PMS5003;33067;49.296;14.470;2023-03-01T14:41:34;26;25;
47079;PMS5003;33067;49.296;14.470;2023-03-01T14:44:00;28;22;
47079;PMS5003;33067;49.296;14.470;2023-03-01T14:46:25;29;27;
47079;PMS5003;33067;49.296;14.470;2023-03-01T14:48:50;32;29;
47079;PMS5003;33067;49.296;14.470;2023-03-01T14:51:15;29;27;
47079;PMS5003;33067;49.296;14.470;2023-03-01T14:53:41;34;28;
47079;PMS5003;33067;49.296;14.470;2023-03-01T14:58:32;33;28;
47079;PMS5003;33067;49.296;14.470;2023-03-01T15:00:58;31;26;
47079;PMS5003;33067;49.296;14.470;2023-03-01T15:03:24;38;36;
47079;PMS5003;33067;49.296;14.470;2023-03-01T15:05:49;36;34;
47079;PMS5003;33067;49.296;14.470;2023-03-01T15:08:16;29;26;
47079;PMS5003;33067;49.296;14.470;2023-03-01T15:10:40;37;33;
47079;PMS5003;33067;49.296;14.470;2023-03-01T15:13:10;34;31;
47079;PMS5003;33067;49.296;14.470;2023-03-01T15:15:31;35;26;
47079;PMS5003;33067;49.296;14.470;2023-03-01T15:20:22;33;31;
47079;PMS5003;33067;49.296;14.470;2023-03-01T15:22:47;28;26;
47079;PMS5003;33067;49.296;14.470;2023-03-01T15:25:14;27;24;
47079;PMS5003;33067;49.296;14.470;2023-03-01T15:27:36;31;30;
47079;PMS5003;33067;49.296;14.470;2023-03-01T15:30:02;24;20;
47079;PMS5003;33067;49.296;14.470;2023-03-01T15:32:28;21;19;
47079;PMS5003;33067;49.296;14.470;2023-03-01T15:34:53;30;24;
47079;PMS5003;33067;49.296;14.470;2023-03-01T15:39:47;26;20;
47079;PMS5003;33067;49.296;14.470;2023-03-01T15:42:10;31;27;
47079;PMS5003;33067;49.296;14.470;2023-03-01T15:44:36;30;26;
47079;PMS5003;33067;49.296;14.470;2023-03-01T15:47:01;23;21;
47079;PMS5003;33067;49.296;14.470;2023-03-01T15:49:30;26;23;
47079;PMS5003;33067;49.296;14.470;2023-03-01T15:51:51;33;26;
47079;PMS5003;33067;49.296;14.470;2023-03-01T15:54:18;24;21;
47079;PMS5003;33067;49.296;14.470;2023-03-01T15:56:42;30;25;
47079;PMS5003;33067;49.296;14.470;2023-03-01T15:59:08;31;27;
47079;PMS5003;33067;49.296;14.470;2023-03-01T16:01:33;19;19;
47079;PMS5003;33067;49.296;14.470;2023-03-01T16:03:59;23;19;
47079;PMS5003;33067;49.296;14.470;2023-03-01T16:06:24;30;24;
47079;PMS5003;33067;49.296;14.470;2023-03-01T16:08:49;24;21;